Time;durP1;ratioP1;P1;durP2;ratioP2;P2;SDS_P1;SDS_P2;PMS_P1;PMS_P2;Temp;Humidity;BMP_temperature;BMP_pressure;BME280_temperature;BME280_humidity;BME280_pressure;Samples;Min_cycle;Max_cycle;Signal;HPM_P1;HPM_P2
2023/03/07 00:00:43;;;;;;;0.00;0.00;;;4.50;91.80;;;;;;5073828;28;20443;-67
2023/03/07 00:03:11;;;;;;;0.00;0.00;;;4.50;91.90;;;;;;5051939;28;20048;-67
2023/03/07 00:05:37;;;;;;;0.00;0.00;;;4.40;91.90;;;;;;5051727;28;20040;-67
2023/03/07 00:08:03;;;;;;;0.08;0.08;;;4.50;91.70;;;;;;5069349;28;20048;-67
2023/03/07 00:10:29;;;;;;;0.10;0.10;;;4.40;91.70;;;;;;5069646;28;20055;-68
2023/03/07 00:12:55;;;;;;;0.00;0.00;;;4.50;91.50;;;;;;5069625;28;20657;-68
2023/03/07 00:15:21;;;;;;;0.00;0.00;;;4.40;91.30;;;;;;5069650;28;20076;-68
2023/03/07 00:17:47;;;;;;;0.00;0.00;;;4.40;91.10;;;;;;5069190;28;20040;-68
2023/03/07 00:20:15;;;;;;;0.05;0.05;;;4.40;90.50;;;;;;5069564;28;20043;-68
2023/03/07 00:22:42;;;;;;;0.00;0.00;;;4.30;90.20;;;;;;5069386;28;20048;-68
2023/03/07 00:25:09;;;;;;;0.00;0.00;;;4.40;89.70;;;;;;5069287;28;20072;-68
2023/03/07 00:27:34;;;;;;;0.80;0.80;;;4.40;89.10;;;;;;5068913;28;20052;-68
2023/03/07 00:30:01;;;;;;;0.00;0.00;;;4.40;89.00;;;;;;5071170;28;20070;-68
2023/03/07 00:32:27;;;;;;;0.00;0.00;;;4.40;88.50;;;;;;5077720;28;20056;-68
2023/03/07 00:34:53;;;;;;;0.00;0.00;;;4.40;88.20;;;;;;5062628;28;20055;-68
2023/03/07 00:37:19;;;;;;;0.00;0.00;;;4.40;88.00;;;;;;5069693;28;20489;-68
2023/03/07 00:39:45;;;;;;;0.00;0.00;;;4.40;87.70;;;;;;5050897;28;20047;-69
2023/03/07 00:42:10;;;;;;;0.00;0.00;;;4.40;87.40;;;;;;5068890;28;20045;-68
2023/03/07 00:44:36;;;;;;;0.00;0.00;;;4.40;87.20;;;;;;5068890;28;20045;-68
2023/03/07 00:47:01;;;;;;;0.00;0.00;;;4.40;87.20;;;;;;5034881;28;20148;-68
2023/03/07 00:49:27;;;;;;;0.00;0.00;;;4.50;86.80;;;;;;5069425;28;20033;-68
2023/03/07 00:51:53;;;;;;;0.52;0.52;;;4.50;86.20;;;;;;5069923;28;20040;-67
2023/03/07 00:54:19;;;;;;;0.00;0.00;;;4.50;86.10;;;;;;5073780;28;20048;-68
2023/03/07 00:56:44;;;;;;;0.00;0.00;;;4.50;86.20;;;;;;5083591;28;20048;-69
2023/03/07 00:59:11;;;;;;;0.00;0.00;;;4.40;86.50;;;;;;5081531;28;20133;-68
2023/03/07 01:01:37;;;;;;;0.00;0.00;;;4.40;86.60;;;;;;5070277;28;20132;-68
2023/03/07 01:04:03;;;;;;;0.00;0.00;;;4.40;86.70;;;;;;5068769;28;20033;-68
2023/03/07 01:06:32;;;;;;;0.10;0.10;;;4.40;86.20;;;;;;5068609;28;20049;-68
2023/03/07 01:09:00;;;;;;;0.00;0.00;;;4.50;85.50;;;;;;5068850;28;20051;-68
2023/03/07 01:11:27;;;;;;;0.00;0.00;;;4.50;84.60;;;;;;5055502;28;20375;-67
2023/03/07 01:13:57;;;;;;;0.00;0.00;;;4.50;84.90;;;;;;5068791;28;20455;-68
2023/03/07 01:16:26;;;;;;;0.03;0.03;;;4.40;84.40;;;;;;5065823;28;20086;-68
2023/03/07 01:18:54;;;;;;;0.00;0.00;;;4.40;83.40;;;;;;5049981;28;20461;-67
2023/03/07 01:21:23;;;;;;;0.00;0.00;;;4.50;83.40;;;;;;5062172;28;20123;-67
2023/03/07 01:23:49;;;;;;;10.63;3.40;;;4.50;82.20;;;;;;5068626;28;20552;-68
2023/03/07 01:26:17;;;;;;;0.00;0.00;;;4.40;82.10;;;;;;5068488;28;20135;-67
2023/03/07 01:28:43;;;;;;;0.03;0.03;;;4.50;81.50;;;;;;5068618;28;20053;-67
2023/03/07 01:31:09;;;;;;;0.00;0.00;;;4.50;80.50;;;;;;5034398;28;20044;-68
2023/03/07 01:33:34;;;;;;;0.10;0.10;;;4.60;80.90;;;;;;5050675;28;20056;-67
2023/03/07 01:36:00;;;;;;;0.10;0.10;;;4.50;79.90;;;;;;5076949;28;20788;-67
2023/03/07 01:38:27;;;;;;;0.00;0.00;;;4.50;80.00;;;;;;5077574;28;20055;-68
2023/03/07 01:40:53;;;;;;;0.00;0.00;;;4.50;80.40;;;;;;5068599;28;20645;-67
2023/03/07 01:43:32;;;;;;;0.10;0.10;;;4.50;81.00;;;;;;5050354;28;20052;-67
2023/03/07 01:46:38;;;;;;;0.00;0.00;;;4.60;81.40;;;;;;5067052;28;20037;-68
2023/03/07 01:49:30;;;;;;;0.00;0.00;;;4.40;82.10;;;;;;5050268;28;20163;-67
2023/03/07 01:51:59;;;;;;;;;;;4.40;82.60;;;;;;5072789;28;20072;-68
2023/03/07 01:54:25;;;;;;;0.00;0.00;;;4.30;83.00;;;;;;5066768;28;19973;-67
2023/03/07 01:56:52;;;;;;;0.00;0.00;;;4.40;83.30;;;;;;5072159;28;20051;-67
2023/03/07 01:59:24;;;;;;;0.00;0.00;;;4.40;82.80;;;;;;5053792;28;20048;-67
2023/03/07 02:01:51;;;;;;;0.00;0.00;;;4.40;81.90;;;;;;5076569;28;20112;-67
2023/03/07 02:04:40;;;;;;;0.00;0.00;;;4.50;81.20;;;;;;5076912;28;20036;-67
2023/03/07 02:07:08;;;;;;;0.00;0.00;;;4.40;81.20;;;;;;5057841;28;20127;-68
2023/03/07 02:09:34;;;;;;;0.00;0.00;;;4.40;80.70;;;;;;5081146;28;20052;-67
2023/03/07 02:12:00;;;;;;;1.98;1.65;;;4.40;80.20;;;;;;5071943;28;20048;-68
2023/03/07 02:14:26;;;;;;;0.00;0.00;;;4.30;79.80;;;;;;5071829;28;20051;-67
2023/03/07 02:16:52;;;;;;;0.00;0.00;;;4.30;79.50;;;;;;5072123;28;20032;-67
2023/03/07 02:19:59;;;;;;;0.63;0.63;;;4.30;79.20;;;;;;5074865;28;20044;-67
2023/03/07 02:22:25;;;;;;;0.00;0.00;;;4.20;79.60;;;;;;5046507;28;20098;-67
2023/03/07 02:24:56;;;;;;;0.00;0.00;;;4.10;79.90;;;;;;5071419;28;20032;-68
2023/03/07 02:27:24;;;;;;;1.75;1.65;;;4.10;80.00;;;;;;5071800;28;20040;-67
2023/03/07 02:29:50;;;;;;;0.00;0.00;;;4.10;80.20;;;;;;5053417;28;20059;-67
2023/03/07 02:32:15;;;;;;;0.00;0.00;;;4.10;80.40;;;;;;5075274;28;20077;-68
2023/03/07 02:34:41;;;;;;;0.00;0.00;;;4.10;80.70;;;;;;5074837;28;20056;-68
2023/03/07 02:37:11;;;;;;;0.10;0.10;;;4.10;81.10;;;;;;5071201;28;20102;-67
2023/03/07 02:39:40;;;;;;;0.00;0.00;;;4.10;80.60;;;;;;5045583;28;20044;-68
2023/03/07 02:42:13;;;;;;;0.00;0.00;;;4.10;80.50;;;;;;5054363;28;20076;-68
2023/03/07 02:44:39;;;;;;;0.10;0.10;;;4.10;80.00;;;;;;5070912;28;20044;-67
2023/03/07 02:47:07;;;;;;;0.05;0.05;;;4.00;79.80;;;;;;5071600;28;20044;-68
2023/03/07 02:49:34;;;;;;;0.00;0.00;;;4.00;78.70;;;;;;5076391;28;20052;-67
2023/03/07 02:52:00;;;;;;;0.00;0.00;;;4.00;78.10;;;;;;5089391;28;20039;-67
2023/03/07 02:54:25;;;;;;;8.57;1.55;;;4.10;77.90;;;;;;5070876;28;20647;-68
2023/03/07 02:56:52;;;;;;;0.00;0.00;;;4.00;77.00;;;;;;5071198;28;20072;-67
2023/03/07 02:59:18;;;;;;;0.00;0.00;;;4.00;77.20;;;;;;5072498;28;20044;-67
2023/03/07 03:01:44;;;;;;;0.00;0.00;;;3.90;76.80;;;;;;5071614;28;20055;-67
2023/03/07 03:04:09;;;;;;;0.00;0.00;;;3.90;77.10;;;;;;5070536;28;20048;-67
2023/03/07 03:06:35;;;;;;;0.00;0.00;;;3.80;76.90;;;;;;5070478;28;20075;-67
2023/03/07 03:09:01;;;;;;;0.00;0.00;;;3.80;77.40;;;;;;5070481;28;20055;-66
2023/03/07 03:11:26;;;;;;;0.25;0.25;;;3.80;77.50;;;;;;5071106;28;20056;-67
2023/03/07 03:13:52;;;;;;;0.00;0.00;;;3.90;78.30;;;;;;5070805;28;20075;-67
2023/03/07 03:16:17;;;;;;;0.00;0.00;;;3.80;79.20;;;;;;5069995;28;20076;-67
2023/03/07 03:18:43;;;;;;;0.10;0.10;;;3.90;79.60;;;;;;5052898;28;20056;-67
2023/03/07 03:21:10;;;;;;;0.00;0.00;;;3.70;80.40;;;;;;5070756;28;20409;-67
2023/03/07 03:23:36;;;;;;;0.00;0.00;;;3.70;80.80;;;;;;5070218;28;20128;-67
2023/03/07 03:26:06;;;;;;;0.00;0.00;;;3.60;81.20;;;;;;5070654;28;20115;-67
2023/03/07 03:28:33;;;;;;;0.00;0.00;;;3.60;81.40;;;;;;5058155;28;20052;-67
2023/03/07 03:31:02;;;;;;;0.00;0.00;;;3.60;81.30;;;;;;5052297;28;20117;-67
2023/03/07 03:33:28;;;;;;;0.00;0.00;;;3.60;81.00;;;;;;5070260;28;20574;-67
2023/03/07 03:35:56;;;;;;;0.00;0.00;;;3.60;80.40;;;;;;5075801;28;20056;-67
2023/03/07 03:38:21;;;;;;;0.00;0.00;;;3.60;80.10;;;;;;5052398;28;20052;-68
2023/03/07 03:40:47;;;;;;;0.00;0.00;;;3.60;79.70;;;;;;5070231;28;20417;-68
2023/03/07 03:43:15;;;;;;;0.25;0.15;;;3.60;79.10;;;;;;5052206;28;20039;-68
2023/03/07 03:45:42;;;;;;;0.00;0.00;;;3.60;79.00;;;;;;5070301;28;20039;-68
2023/03/07 03:48:08;;;;;;;0.00;0.00;;;3.70;79.50;;;;;;5053741;28;20048;-67
2023/03/07 03:50:33;;;;;;;0.00;0.00;;;3.70;79.60;;;;;;5069932;28;20471;-68
2023/03/07 03:53:00;;;;;;;0.00;0.00;;;3.70;79.40;;;;;;5079604;28;20036;-68
2023/03/07 03:55:26;;;;;;;0.00;0.00;;;3.90;79.30;;;;;;5035867;28;20048;-68
2023/03/07 03:57:51;;;;;;;0.00;0.00;;;3.80;79.10;;;;;;5086491;28;20047;-68
2023/03/07 04:00:18;;;;;;;0.10;0.10;;;3.80;78.80;;;;;;5038483;28;20048;-68
2023/03/07 04:02:45;;;;;;;0.10;0.10;;;3.80;78.30;;;;;;5078240;28;20045;-68
2023/03/07 04:05:11;;;;;;;0.05;0.05;;;3.80;78.20;;;;;;5069335;28;20132;-68
2023/03/07 04:07:37;;;;;;;2.00;1.17;;;3.70;78.80;;;;;;5063879;28;20051;-67
2023/03/07 04:10:04;;;;;;;0.00;0.00;;;3.80;77.90;;;;;;5079245;28;20404;-68
2023/03/07 04:12:30;;;;;;;0.00;0.00;;;3.90;77.40;;;;;;5069706;28;20496;-68
2023/03/07 04:14:55;;;;;;;0.00;0.00;;;3.80;77.80;;;;;;5083564;28;20761;-69
2023/03/07 04:17:22;;;;;;;1.65;0.80;;;3.80;77.50;;;;;;5070921;28;20135;-68
2023/03/07 04:19:47;;;;;;;0.28;0.25;;;3.70;77.90;;;;;;5071945;28;20052;-68
2023/03/07 04:22:13;;;;;;;0.00;0.00;;;3.70;78.30;;;;;;5053394;28;20478;-68
2023/03/07 04:24:38;;;;;;;0.00;0.00;;;3.70;78.70;;;;;;5069381;28;20052;-68
2023/03/07 04:27:04;;;;;;;0.00;0.00;;;3.70;79.00;;;;;;5051439;28;20041;-68
2023/03/07 04:29:30;;;;;;;0.00;0.00;;;3.70;79.60;;;;;;5069453;28;20044;-68
2023/03/07 04:31:55;;;;;;;0.10;0.10;;;3.70;79.70;;;;;;5051687;28;20500;-68
2023/03/07 04:34:21;;;;;;;0.10;0.10;;;3.70;79.60;;;;;;5069520;28;20080;-68
2023/03/07 04:36:47;;;;;;;0.08;0.08;;;3.70;79.70;;;;;;5069065;28;20048;-68
2023/03/07 04:39:12;;;;;;;0.00;0.00;;;3.70;79.60;;;;;;5068732;28;20047;-68
2023/03/07 04:41:38;;;;;;;0.00;0.00;;;3.70;79.40;;;;;;5069328;28;20125;-68
2023/03/07 04:44:03;;;;;;;0.10;0.10;;;3.70;79.20;;;;;;5069313;28;20037;-68
2023/03/07 04:46:29;;;;;;;0.00;0.00;;;3.70;79.10;;;;;;5051769;28;20158;-68
2023/03/07 04:48:55;;;;;;;0.00;0.00;;;3.70;78.50;;;;;;5070567;28;20731;-68
2023/03/07 04:51:21;;;;;;;0.05;0.05;;;3.70;78.60;;;;;;5069889;28;20041;-68
2023/03/07 04:53:47;;;;;;;0.00;0.00;;;3.70;78.30;;;;;;5069280;28;20049;-68
2023/03/07 04:56:15;;;;;;;0.10;0.10;;;3.80;78.50;;;;;;5068546;28;20032;-68
2023/03/07 04:58:41;;;;;;;0.00;0.00;;;3.90;78.10;;;;;;5050953;28;20097;-68
2023/03/07 05:01:07;;;;;;;0.05;0.05;;;3.80;78.40;;;;;;5069186;28;20040;-69
2023/03/07 05:03:34;;;;;;;0.00;0.00;;;3.90;78.50;;;;;;5068682;28;20410;-68
2023/03/07 05:06:01;;;;;;;0.00;0.00;;;3.90;78.60;;;;;;5051651;28;20047;-68
2023/03/07 05:08:27;;;;;;;0.00;0.00;;;3.80;78.80;;;;;;5064589;28;20048;-68
2023/03/07 05:10:52;;;;;;;0.00;0.00;;;3.70;79.30;;;;;;5069772;28;20035;-68
2023/03/07 05:13:18;;;;;;;0.00;0.00;;;3.70;79.40;;;;;;5068572;28;20416;-69
2023/03/07 05:15:50;;;;;;;0.00;0.00;;;3.70;80.00;;;;;;5068825;28;20049;-68
2023/03/07 05:18:15;;;;;;;0.00;0.00;;;3.70;80.20;;;;;;5067943;28;20484;-68
2023/03/07 05:20:42;;;;;;;0.00;0.00;;;3.70;80.30;;;;;;5068958;28;20080;-68
2023/03/07 05:23:07;;;;;;;0.00;0.00;;;3.80;80.30;;;;;;5068903;28;20084;-69
2023/03/07 05:25:33;;;;;;;0.00;0.00;;;3.70;80.40;;;;;;5051892;28;20083;-68
2023/03/07 05:27:58;;;;;;;0.00;0.00;;;3.70;80.30;;;;;;5072741;28;20434;-68
2023/03/07 05:30:24;;;;;;;0.00;0.00;;;3.80;79.80;;;;;;5072826;28;20048;-68
2023/03/07 05:32:50;;;;;;;0.00;0.00;;;3.70;79.80;;;;;;5072208;28;20101;-68
2023/03/07 05:35:16;;;;;;;0.03;0.03;;;3.70;79.20;;;;;;5073109;28;20096;-68
2023/03/07 05:37:41;;;;;;;0.10;0.10;;;3.70;78.70;;;;;;5072582;28;20047;-68
2023/03/07 05:40:08;;;;;;;0.00;0.00;;;3.70;78.60;;;;;;5067536;28;20036;-69
2023/03/07 05:42:34;;;;;;;0.10;0.10;;;3.70;78.70;;;;;;5069379;28;20127;-69
2023/03/07 05:45:00;;;;;;;14.70;2.58;;;3.70;79.10;;;;;;5049071;28;20127;-68
2023/03/07 05:47:25;;;;;;;0.00;0.00;;;3.70;79.40;;;;;;5066392;28;20287;-69
2023/03/07 05:49:51;;;;;;;0.00;0.00;;;3.80;79.70;;;;;;5069783;28;20374;-69
2023/03/07 05:52:17;;;;;;;0.00;0.00;;;3.80;80.00;;;;;;5069295;28;20040;-69
2023/03/07 05:54:42;;;;;;;0.28;0.28;;;3.70;81.30;;;;;;5069746;28;20036;-70
2023/03/07 05:57:08;;;;;;;0.00;0.00;;;3.60;82.00;;;;;;5052815;28;20389;-69
2023/03/07 05:59:33;;;;;;;0.10;0.10;;;3.60;82.70;;;;;;5052129;28;20113;-69
2023/03/07 06:02:00;;;;;;;1.55;1.45;;;3.60;83.30;;;;;;5069224;28;20044;-69
2023/03/07 06:04:26;;;;;;;0.00;0.00;;;3.60;83.90;;;;;;5070671;28;20098;-69
2023/03/07 06:06:51;;;;;;;0.00;0.00;;;3.60;84.30;;;;;;5070222;28;20513;-69
2023/03/07 06:09:17;;;;;;;1.00;1.00;;;3.60;84.00;;;;;;5051904;28;20060;-69
2023/03/07 06:11:43;;;;;;;0.00;0.00;;;3.60;84.00;;;;;;5069117;28;20048;-69
2023/03/07 06:14:08;;;;;;;0.00;0.00;;;3.60;84.20;;;;;;5065418;28;20396;-70
2023/03/07 06:16:34;;;;;;;0.00;0.00;;;3.60;84.20;;;;;;5068603;28;20049;-69
2023/03/07 06:18:59;;;;;;;0.00;0.00;;;3.60;84.40;;;;;;5064683;28;20044;-69
2023/03/07 06:21:25;;;;;;;0.00;0.00;;;3.50;84.50;;;;;;5068829;28;20040;-69
2023/03/07 06:23:51;;;;;;;0.00;0.00;;;3.40;84.70;;;;;;5071218;28;20055;-69
2023/03/07 06:26:16;;;;;;;0.00;0.00;;;3.30;84.70;;;;;;5071480;28;20123;-69
2023/03/07 06:28:42;;;;;;;0.73;0.65;;;3.20;85.20;;;;;;5071719;28;20534;-69
2023/03/07 06:31:16;;;;;;;0.00;0.00;;;3.10;85.60;;;;;;5053719;28;20080;-69
2023/03/07 06:33:43;;;;;;;0.00;0.00;;;3.00;86.00;;;;;;5072424;28;20466;-69
2023/03/07 06:36:11;;;;;;;0.00;0.00;;;3.00;86.40;;;;;;5071665;28;20067;-69
2023/03/07 06:38:37;;;;;;;0.00;0.00;;;2.90;86.50;;;;;;5068393;28;20060;-69
2023/03/07 06:41:03;;;;;;;0.00;0.00;;;2.90;86.50;;;;;;5035321;28;20047;-69
2023/03/07 06:43:29;;;;;;;0.00;0.00;;;3.00;86.70;;;;;;5060255;28;20045;-68
2023/03/07 06:45:55;;;;;;;0.00;0.00;;;2.90;86.90;;;;;;5063852;28;20045;-69
2023/03/07 06:48:21;;;;;;;0.00;0.00;;;2.90;87.10;;;;;;5073006;28;20086;-69
2023/03/07 06:50:46;;;;;;;0.00;0.00;;;2.90;87.30;;;;;;5036182;28;20549;-68
2023/03/07 06:53:12;;;;;;;0.00;0.00;;;2.90;87.50;;;;;;5050090;28;20045;-68
2023/03/07 06:55:38;;;;;;;0.00;0.00;;;2.90;87.50;;;;;;5057639;28;20139;-68
2023/03/07 06:58:04;;;;;;;0.00;0.00;;;2.90;87.60;;;;;;5043136;28;20648;-69
2023/03/07 07:00:29;;;;;;;0.00;0.00;;;3.00;87.50;;;;;;5068099;28;20056;-65
2023/03/07 07:02:55;;;;;;;0.00;0.00;;;3.00;87.60;;;;;;5070530;28;20420;-65
2023/03/07 07:05:21;;;;;;;0.00;0.00;;;3.00;87.70;;;;;;5067737;28;20063;-65
2023/03/07 07:07:46;;;;;;;0.00;0.00;;;3.10;87.90;;;;;;5050897;28;20032;-65
2023/03/07 07:10:12;;;;;;;0.00;0.00;;;3.10;87.40;;;;;;5067796;28;20044;-66
2023/03/07 07:12:38;;;;;;;4.28;2.22;;;3.10;87.20;;;;;;5068814;28;20049;-65
2023/03/07 07:15:04;;;;;;;0.73;0.73;;;3.00;87.50;;;;;;5070254;28;20076;-65
2023/03/07 07:17:34;;;;;;;0.00;0.00;;;2.90;87.70;;;;;;5072334;28;20127;-66
2023/03/07 07:20:04;;;;;;;0.00;0.00;;;2.90;87.80;;;;;;5068220;28;20063;-70
2023/03/07 07:22:30;;;;;;;0.00;0.00;;;3.00;88.00;;;;;;5068846;28;20099;-66
2023/03/07 07:24:56;;;;;;;1.05;1.02;;;3.10;88.10;;;;;;5052050;28;20052;-66
2023/03/07 07:27:21;;;;;;;0.00;0.00;;;3.20;87.80;;;;;;5069327;28;20094;-66
2023/03/07 07:29:47;;;;;;;0.00;0.00;;;3.20;87.70;;;;;;5070911;28;20047;-66
2023/03/07 07:32:13;;;;;;;0.00;0.00;;;3.20;87.50;;;;;;5070919;28;20455;-67
2023/03/07 07:34:38;;;;;;;0.10;0.10;;;3.10;87.50;;;;;;5070665;28;20063;-67
2023/03/07 07:37:05;;;;;;;1.35;1.25;;;3.10;87.40;;;;;;5039440;28;20084;-66
2023/03/07 07:39:31;;;;;;;0.00;0.00;;;3.10;87.50;;;;;;5090454;28;20051;-67
2023/03/07 07:41:56;;;;;;;0.00;0.00;;;3.20;87.50;;;;;;5072390;28;20162;-65
2023/03/07 07:44:22;;;;;;;0.00;0.00;;;3.20;87.40;;;;;;5072638;28;20051;-66
2023/03/07 07:46:47;;;;;;;0.00;0.00;;;3.10;87.40;;;;;;5090153;28;20040;-66
2023/03/07 07:49:13;;;;;;;0.00;0.00;;;3.10;87.40;;;;;;5068484;28;20552;-66
2023/03/07 07:51:39;;;;;;;0.00;0.00;;;3.20;87.40;;;;;;5050323;28;20049;-66
2023/03/07 07:54:06;;;;;;;0.00;0.00;;;3.20;87.40;;;;;;5058784;28;20075;-66
2023/03/07 07:56:32;;;;;;;0.00;0.00;;;3.20;87.30;;;;;;5052282;28;20044;-66
2023/03/07 07:58:57;;;;;;;0.00;0.00;;;3.20;87.20;;;;;;5070039;28;20094;-67
2023/03/07 08:01:24;;;;;;;0.00;0.00;;;3.20;87.10;;;;;;5069657;28;20033;-66
2023/03/07 08:03:50;;;;;;;0.00;0.00;;;3.30;87.00;;;;;;5070114;28;20485;-66
2023/03/07 08:06:24;;;;;;;0.00;0.00;;;3.30;87.00;;;;;;5068710;28;20097;-66
2023/03/07 08:08:50;;;;;;;0.00;0.00;;;3.40;86.90;;;;;;5069722;28;20056;-65
2023/03/07 08:11:17;;;;;;;0.00;0.00;;;3.40;86.70;;;;;;5070773;28;20076;-66
2023/03/07 08:13:43;;;;;;;0.00;0.00;;;3.40;86.70;;;;;;5069860;28;20112;-66
2023/03/07 08:16:14;;;;;;;0.00;0.00;;;3.50;86.60;;;;;;5037247;28;20465;-66
2023/03/07 08:18:40;;;;;;;0.00;0.00;;;3.50;86.60;;;;;;5069033;28;20402;-65
2023/03/07 08:21:07;;;;;;;0.00;0.00;;;3.50;86.20;;;;;;5047767;28;20072;-66
2023/03/07 08:23:33;;;;;;;0.00;0.00;;;3.50;86.40;;;;;;5081767;28;20044;-66
2023/03/07 08:26:04;;;;;;;0.00;0.00;;;3.60;86.20;;;;;;5059227;28;20048;-66
2023/03/07 08:28:30;;;;;;;0.00;0.00;;;3.60;86.00;;;;;;5035222;28;20550;-66
2023/03/07 08:30:55;;;;;;;0.00;0.00;;;3.60;86.00;;;;;;5067461;28;20048;-66
2023/03/07 08:33:21;;;;;;;0.00;0.00;;;3.70;85.90;;;;;;5069804;28;20119;-66
2023/03/07 08:35:46;;;;;;;0.00;0.00;;;3.70;84.50;;;;;;5070090;28;20040;-66
2023/03/07 08:38:12;;;;;;;0.05;0.05;;;3.60;82.30;;;;;;5072417;28;20051;-66
2023/03/07 08:40:38;;;;;;;0.00;0.00;;;3.40;81.20;;;;;;5068273;28;20694;-66
2023/03/07 08:43:03;;;;;;;0.20;0.20;;;3.20;81.20;;;;;;5067590;28;20052;-66
2023/03/07 08:45:29;;;;;;;0.00;0.00;;;3.00;82.00;;;;;;5067680;28;20036;-66
2023/03/07 08:47:55;;;;;;;0.10;0.10;;;3.10;82.70;;;;;;5065945;28;20040;-66
2023/03/07 08:50:23;;;;;;;0.00;0.00;;;3.00;83.40;;;;;;5068999;28;20405;-66
2023/03/07 08:52:49;;;;;;;0.00;0.00;;;2.90;84.10;;;;;;5068371;28;20045;-66
2023/03/07 08:55:15;;;;;;;0.00;0.00;;;2.80;84.70;;;;;;5068687;28;20185;-66
2023/03/07 08:57:41;;;;;;;0.00;0.00;;;2.70;84.80;;;;;;5068119;28;20497;-66
2023/03/07 09:00:08;;;;;;;0.00;0.00;;;2.70;85.20;;;;;;5068338;28;20048;-66
2023/03/07 09:02:34;;;;;;;0.35;0.35;;;2.80;85.50;;;;;;5051041;28;20074;-67
2023/03/07 09:04:59;;;;;;;0.10;0.10;;;2.80;85.50;;;;;;5069057;28;20079;-66
2023/03/07 09:07:26;;;;;;;0.00;0.00;;;2.80;85.50;;;;;;5068228;28;20067;-66
2023/03/07 09:09:52;;;;;;;0.00;0.00;;;2.90;85.70;;;;;;5069046;28;20375;-66
2023/03/07 09:12:17;;;;;;;0.32;0.32;;;2.90;85.50;;;;;;5068752;28;20047;-67
2023/03/07 09:14:43;;;;;;;0.00;0.00;;;2.80;85.90;;;;;;5050263;28;20049;-66
2023/03/07 09:17:09;;;;;;;0.00;0.00;;;2.90;85.90;;;;;;5067619;28;20043;-67
2023/03/07 09:19:34;;;;;;;0.00;0.00;;;3.00;85.80;;;;;;5069413;28;20123;-66
2023/03/07 09:22:00;;;;;;;0.00;0.00;;;3.10;85.70;;;;;;5086995;28;20214;-67
2023/03/07 09:24:26;;;;;;;0.00;0.00;;;3.10;85.40;;;;;;5070466;28;20059;-67
2023/03/07 09:26:51;;;;;;;0.00;0.00;;;3.10;85.00;;;;;;5067254;28;20044;-67
2023/03/07 09:29:17;;;;;;;0.00;0.00;;;3.20;84.70;;;;;;5050761;28;20044;-67
2023/03/07 09:31:43;;;;;;;0.10;0.10;;;3.20;84.10;;;;;;5069300;28;20044;-66
2023/03/07 09:34:10;;;;;;;0.00;0.00;;;3.10;84.00;;;;;;5050875;28;20041;-67
2023/03/07 09:36:36;;;;;;;0.15;0.15;;;3.20;83.60;;;;;;5050934;28;20496;-67
2023/03/07 09:39:03;;;;;;;0.03;0.03;;;3.10;83.70;;;;;;5051110;28;20045;-67
2023/03/07 09:41:51;;;;;;;0.00;0.00;;;3.20;83.90;;;;;;5068518;28;20032;-66
2023/03/07 09:44:30;;;;;;;0.00;0.00;;;3.20;84.00;;;;;;5068639;28;20040;-66
2023/03/07 09:47:03;;;;;;;0.10;0.10;;;3.30;84.40;;;;;;5068696;28;20052;-67
2023/03/07 09:49:37;;;;;;;0.00;0.00;;;3.40;84.10;;;;;;5068934;28;20037;-67
2023/03/07 09:52:12;;;;;;;0.00;0.00;;;3.60;84.30;;;;;;5076155;28;20046;-67
2023/03/07 09:54:43;;;;;;;0.00;0.00;;;3.60;84.30;;;;;;5075760;28;20044;-67
2023/03/07 09:57:39;;;;;;;0.00;0.00;;;3.70;83.80;;;;;;5050850;28;20432;-66
2023/03/07 10:00:28;;;;;;;2.17;2.00;;;3.80;83.70;;;;;;5068574;28;20132;-66
2023/03/07 10:03:09;;;;;;;0.00;0.00;;;3.90;83.90;;;;;;5068247;28;20386;-66
2023/03/07 10:05:47;;;;;;;12.60;1.75;;;4.00;83.90;;;;;;5068350;28;20051;-66
2023/03/07 10:08:20;;;;;;;0.05;0.05;;;4.00;83.90;;;;;;5069830;28;20135;-67
2023/03/07 10:11:12;;;;;;;1.25;0.98;;;4.10;83.90;;;;;;5088496;28;20515;-67
2023/03/07 10:13:56;;;;;;;0.10;0.10;;;4.20;83.80;;;;;;5091340;28;20131;-67
2023/03/07 10:16:46;;;;;;;0.00;0.00;;;3.90;83.20;;;;;;5071968;28;20405;-68
2023/03/07 10:19:24;;;;;;;0.10;0.10;;;3.70;83.30;;;;;;5073167;28;20793;-67
2023/03/07 10:22:14;;;;;;;0.00;0.00;;;3.50;83.70;;;;;;5071685;28;20040;-67
2023/03/07 10:24:57;;;;;;;0.10;0.10;;;3.60;84.10;;;;;;5072151;28;20040;-67
2023/03/07 10:27:25;;;;;;;0.00;0.00;;;3.60;84.30;;;;;;5054366;28;20469;-67
2023/03/07 10:29:54;;;;;;;0.00;0.00;;;3.60;84.40;;;;;;5054105;28;20041;-67
2023/03/07 10:32:24;;;;;;;0.00;0.00;;;3.60;84.40;;;;;;5072212;28;20045;-67
2023/03/07 10:35:23;;;;;;;1.58;1.42;;;3.60;84.10;;;;;;5071450;28;20064;-67
2023/03/07 10:38:22;;;;;;;0.10;0.10;;;3.70;84.40;;;;;;5071533;28;20048;-66
2023/03/07 10:41:00;;;;;;;0.00;0.00;;;3.70;84.30;;;;;;5071685;28;20624;-67
2023/03/07 10:43:33;;;;;;;0.00;0.00;;;3.80;84.20;;;;;;5074238;28;20063;-67
2023/03/07 10:46:10;;;;;;;0.00;0.00;;;3.80;83.00;;;;;;5076401;28;20049;-67
2023/03/07 10:48:39;;;;;;;0.00;0.00;;;3.80;82.60;;;;;;5053722;28;20044;-67
2023/03/07 10:51:34;;;;;;;0.00;0.00;;;4.00;81.70;;;;;;5071431;28;20048;-67
2023/03/07 10:54:02;;;;;;;0.10;0.10;;;4.10;80.90;;;;;;5072565;28;20055;-67
2023/03/07 10:56:27;;;;;;;0.00;0.00;;;4.20;81.00;;;;;;5071265;28;20037;-67
2023/03/07 10:59:04;;;;;;;0.00;0.00;;;4.30;80.40;;;;;;5071387;28;20051;-67
2023/03/07 11:01:31;;;;;;;0.00;0.00;;;4.20;80.00;;;;;;5072492;28;20040;-67
2023/03/07 11:04:01;;;;;;;0.10;0.10;;;4.30;78.50;;;;;;5078478;28;20054;-67
2023/03/07 11:06:36;;;;;;;0.10;0.10;;;4.40;78.90;;;;;;5071590;28;20040;-67
2023/03/07 11:09:18;;;;;;;0.10;0.10;;;4.50;78.70;;;;;;5071355;28;20124;-67
2023/03/07 11:12:11;;;;;;;0.00;0.00;;;4.50;78.60;;;;;;5070173;28;20119;-67
2023/03/07 11:14:52;;;;;;;0.00;0.00;;;4.60;79.30;;;;;;5071299;28;20524;-67
2023/03/07 11:17:26;;;;;;;0.00;0.00;;;4.60;79.40;;;;;;5070941;28;20079;-66
2023/03/07 11:19:54;;;;;;;0.00;0.00;;;4.60;78.70;;;;;;5071134;28;20155;-67
2023/03/07 11:22:32;;;;;;;0.00;0.00;;;4.70;78.80;;;;;;5071148;28;20040;-67
2023/03/07 11:25:14;;;;;;;0.00;0.00;;;4.70;75.80;;;;;;5070709;28;20040;-66
2023/03/07 11:27:49;;;;;;;;;;;4.80;74.00;;;;;;5070315;28;20049;-67
2023/03/07 11:30:20;;;;;;;0.00;0.00;;;4.90;72.30;;;;;;5070766;28;19999;-67
2023/03/07 11:33:06;;;;;;;0.00;0.00;;;5.00;72.40;;;;;;5070804;28;20191;-67
2023/03/07 11:35:55;;;;;;;0.00;0.00;;;5.00;73.00;;;;;;5079230;28;20363;-67
2023/03/07 11:38:42;;;;;;;0.00;0.00;;;5.00;71.70;;;;;;5072517;28;20519;-67
2023/03/07 11:41:30;;;;;;;0.10;0.10;;;5.10;71.20;;;;;;5076852;28;20056;-67
2023/03/07 11:44:14;;;;;;;0.10;0.10;;;5.10;71.80;;;;;;5070349;28;20048;-67
2023/03/07 11:47:00;;;;;;;0.05;0.05;;;5.20;70.80;;;;;;5085530;28;20139;-64
2023/03/07 11:50:00;;;;;;;0.00;0.00;;;5.40;70.30;;;;;;5077152;28;20050;-66
2023/03/07 11:52:40;;;;;;;0.65;0.65;;;5.30;68.20;;;;;;5090109;28;20044;-67
2023/03/07 11:55:09;;;;;;;0.00;0.00;;;5.30;67.60;;;;;;5090634;28;20055;-67
2023/03/07 11:57:57;;;;;;;0.00;0.00;;;5.40;66.30;;;;;;5063687;28;20127;-66
2023/03/07 12:00:29;;;;;;;0.00;0.00;;;5.40;64.10;;;;;;5078409;28;20469;-66
2023/03/07 12:03:02;;;;;;;1.95;0.90;;;5.40;63.40;;;;;;5079483;28;20039;-67
2023/03/07 12:05:42;;;;;;;0.00;0.00;;;5.40;64.20;;;;;;5071931;28;20130;-66
2023/03/07 12:08:26;;;;;;;0.00;0.00;;;5.50;63.30;;;;;;5086108;28;20045;-66
2023/03/07 12:10:55;;;;;;;0.10;0.10;;;5.50;62.30;;;;;;5070116;28;20058;-67
2023/03/07 12:13:53;;;;;;;1.17;0.90;;;5.60;62.70;;;;;;5070120;28;20043;-67
2023/03/07 12:16:51;;;;;;;0.00;0.00;;;5.60;62.40;;;;;;5036464;28;20126;-66
2023/03/07 12:19:35;;;;;;;0.00;0.00;;;5.70;61.80;;;;;;5051202;28;20489;-66
2023/03/07 12:22:22;;;;;;;0.00;0.00;;;5.70;62.80;;;;;;5055152;28;20516;-65
2023/03/07 12:25:03;;;;;;;0.00;0.00;;;5.80;63.20;;;;;;5090124;28;20112;-66
2023/03/07 12:27:47;;;;;;;0.00;0.00;;;5.60;63.10;;;;;;5089527;28;20098;-66
2023/03/07 12:30:45;;;;;;;0.00;0.00;;;5.50;64.50;;;;;;5081136;28;20056;-66
2023/03/07 12:33:39;;;;;;;0.00;0.00;;;5.60;66.30;;;;;;5046091;28;20150;-66
2023/03/07 12:36:14;;;;;;;0.00;0.00;;;5.40;66.80;;;;;;5050626;28;20056;-66
2023/03/07 12:38:51;;;;;;;0.00;0.00;;;5.20;66.60;;;;;;5084403;28;20055;-66
2023/03/07 12:41:38;;;;;;;0.00;0.00;;;5.30;66.30;;;;;;5089313;28;20040;-65
2023/03/07 12:44:11;;;;;;;0.00;0.00;;;5.30;65.60;;;;;;5054647;28;20152;-66
2023/03/07 12:46:59;;;;;;;0.05;0.05;;;5.40;63.50;;;;;;5069214;28;20123;-66
2023/03/07 12:49:39;;;;;;;0.03;0.03;;;5.50;63.90;;;;;;5070748;28;20048;-66
2023/03/07 12:52:15;;;;;;;0.00;0.00;;;5.60;62.00;;;;;;5069158;28;20037;-66
2023/03/07 12:54:49;;;;;;;0.00;0.00;;;5.60;61.30;;;;;;5070421;28;20037;-66
2023/03/07 12:57:39;;;;;;;0.10;0.10;;;5.70;62.80;;;;;;5075320;28;20505;-66
2023/03/07 13:00:10;;;;;;;1.02;1.00;;;5.80;61.20;;;;;;5088523;28;20051;-66
2023/03/07 13:03:00;;;;;;;0.00;0.00;;;5.90;61.90;;;;;;5080738;28;20086;-65
2023/03/07 13:05:27;;;;;;;0.00;0.00;;;5.70;62.90;;;;;;5046304;28;20055;-66
2023/03/07 13:07:53;;;;;;;0.00;0.00;;;5.70;63.70;;;;;;5049847;28;20049;-66
2023/03/07 13:10:22;;;;;;;0.00;0.00;;;5.60;61.70;;;;;;5069306;28;20040;-66
2023/03/07 13:12:50;;;;;;;0.00;0.00;;;5.50;60.90;;;;;;5069116;28;20040;-66